createdAt,value
2023-02-28T13:45:44.522Z,517.90002
2023-02-28T13:45:54.955Z,514
2023-02-28T13:46:52.391Z,495.70001
2023-02-28T13:47:51.474Z,491.79998
2023-02-28T13:48:52.259Z,485.6
2023-02-28T13:49:52.319Z,480
2023-02-28T13:50:52.266Z,494.1
2023-02-28T13:51:51.595Z,495.5
2023-02-28T13:52:53.217Z,492.39999
2023-02-28T13:53:53.060Z,486.39999
2023-02-28T13:54:51.394Z,477
2023-02-28T13:55:51.061Z,488.5
2023-02-28T13:56:51.469Z,483.6
2023-02-28T13:57:52.309Z,477.5
2023-02-28T13:58:51.900Z,480.89999
2023-02-28T13:59:54.133Z,473.5
2023-02-28T14:00:51.956Z,474
2023-02-28T14:01:53.988Z,473.6
2023-02-28T14:02:52.110Z,473.79998
2023-02-28T14:03:52.910Z,472.1
2023-02-28T14:04:53.185Z,469.39999
2023-02-28T14:05:51.074Z,469.70001
2023-02-28T14:06:54.004Z,465.1
2023-02-28T14:07:53.153Z,466.6
2023-02-28T14:08:52.897Z,459.39999
2023-02-28T14:09:54.940Z,457.29998
2023-02-28T14:10:52.020Z,459.20001
2023-02-28T14:11:51.977Z,448.20001
2023-02-28T14:12:52.754Z,456.1
2023-02-28T14:13:51.987Z,451
2023-02-28T14:14:51.775Z,448.70001
2023-02-28T14:15:52.818Z,446.6
2023-02-28T14:16:52.934Z,444.29998
2023-02-28T14:17:51.894Z,439.5
2023-02-28T14:18:54.963Z,438.39999
2023-02-28T14:19:52.783Z,436.5
2023-02-28T14:20:53.635Z,436.79998
2023-02-28T14:21:51.811Z,438.5
2023-02-28T14:22:50.847Z,435.39999
2023-02-28T14:23:51.981Z,462.79998
2023-02-28T14:24:51.818Z,497.79998
